sensor_id;sensor_type;location;lat;lon;timestamp;temperature;humidity
66088;DHT22;52872;52.994;6.940;2022-11-20T00:01:15;1.30;99.90
66088;DHT22;52872;52.994;6.940;2022-11-20T00:03:43;1.40;99.90
66088;DHT22;52872;52.994;6.940;2022-11-20T00:06:16;1.40;99.90
66088;DHT22;52872;52.994;6.940;2022-11-20T00:08:44;1.40;99.90
66088;DHT22;52872;52.994;6.940;2022-11-20T00:11:16;1.50;99.90
66088;DHT22;52872;52.994;6.940;2022-11-20T00:13:48;1.50;99.90
66088;DHT22;52872;52.994;6.940;2022-11-20T00:16:17;1.60;99.90
66088;DHT22;52872;52.994;6.940;2022-11-20T00:18:45;1.60;99.90
66088;DHT22;52872;52.994;6.940;2022-11-20T00:21:18;1.60;99.90
66088;DHT22;52872;52.994;6.940;2022-11-20T00:23:45;1.70;99.90
66088;DHT22;52872;52.994;6.940;2022-11-20T00:26:14;1.70;99.90
66088;DHT22;52872;52.994;6.940;2022-11-20T00:28:42;1.70;99.90
66088;DHT22;52872;52.994;6.940;2022-11-20T00:31:12;1.70;99.90
66088;DHT22;52872;52.994;6.940;2022-11-20T00:33:40;1.70;99.90
66088;DHT22;52872;52.994;6.940;2022-11-20T00:36:10;1.80;99.90
66088;DHT22;52872;52.994;6.940;2022-11-20T00:38:37;1.80;99.90
66088;DHT22;52872;52.994;6.940;2022-11-20T00:41:08;1.80;99.90
66088;DHT22;52872;52.994;6.940;2022-11-20T00:43:35;1.80;99.90
66088;DHT22;52872;52.994;6.940;2022-11-20T00:48:37;1.90;99.90
66088;DHT22;52872;52.994;6.940;2022-11-20T00:51:04;1.90;99.90
66088;DHT22;52872;52.994;6.940;2022-11-20T00:53:31;1.90;99.90
66088;DHT22;52872;52.994;6.940;2022-11-20T00:56:00;1.90;99.90
66088;DHT22;52872;52.994;6.940;2022-11-20T00:58:32;1.90;99.90
66088;DHT22;52872;52.994;6.940;2022-11-20T01:01:11;1.90;99.90
66088;DHT22;52872;52.994;6.940;2022-11-20T01:03:43;1.90;99.90
66088;DHT22;52872;52.994;6.940;2022-11-20T01:06:20;1.90;99.90
66088;DHT22;52872;52.994;6.940;2022-11-20T01:08:48;1.90;99.90
66088;DHT22;52872;52.994;6.940;2022-11-20T01:11:21;1.90;99.90
66088;DHT22;52872;52.994;6.940;2022-11-20T01:13:49;1.90;99.90
66088;DHT22;52872;52.994;6.940;2022-11-20T01:16:23;1.90;99.90
66088;DHT22;52872;52.994;6.940;2022-11-20T01:18:53;1.90;99.90
66088;DHT22;52872;52.994;6.940;2022-11-20T01:21:24;1.90;99.90
66088;DHT22;52872;52.994;6.940;2022-11-20T01:23:52;2.00;99.90
66088;DHT22;52872;52.994;6.940;2022-11-20T01:26:21;1.90;99.90
66088;DHT22;52872;52.994;6.940;2022-11-20T01:28:49;1.90;99.90
66088;DHT22;52872;52.994;6.940;2022-11-20T01:31:22;1.90;99.90
66088;DHT22;52872;52.994;6.940;2022-11-20T01:33:55;2.00;99.90
66088;DHT22;52872;52.994;6.940;2022-11-20T01:36:24;2.00;99.90
66088;DHT22;52872;52.994;6.940;2022-11-20T01:38:53;2.00;99.90
66088;DHT22;52872;52.994;6.940;2022-11-20T01:41:21;2.00;99.90
66088;DHT22;52872;52.994;6.940;2022-11-20T01:44:09;2.00;99.90
66088;DHT22;52872;52.994;6.940;2022-11-20T01:46:42;2.00;99.90
66088;DHT22;52872;52.994;6.940;2022-11-20T01:49:22;2.00;99.90
66088;DHT22;52872;52.994;6.940;2022-11-20T01:52:00;2.00;99.90
66088;DHT22;52872;52.994;6.940;2022-11-20T01:54:41;2.00;99.90
66088;DHT22;52872;52.994;6.940;2022-11-20T01:57:11;2.00;99.90
66088;DHT22;52872;52.994;6.940;2022-11-20T01:59:44;2.00;99.90
66088;DHT22;52872;52.994;6.940;2022-11-20T02:02:11;2.00;99.90
66088;DHT22;52872;52.994;6.940;2022-11-20T02:04:38;2.00;99.90
66088;DHT22;52872;52.994;6.940;2022-11-20T02:07:05;2.00;99.90
66088;DHT22;52872;52.994;6.940;2022-11-20T02:09:32;2.00;99.90
66088;DHT22;52872;52.994;6.940;2022-11-20T02:12:00;2.00;99.90
66088;DHT22;52872;52.994;6.940;2022-11-20T02:14:28;2.00;99.90
66088;DHT22;52872;52.994;6.940;2022-11-20T02:16:55;2.10;99.90
66088;DHT22;52872;52.994;6.940;2022-11-20T02:19:26;2.10;99.90
66088;DHT22;52872;52.994;6.940;2022-11-20T02:24:26;2.20;99.90
66088;DHT22;52872;52.994;6.940;2022-11-20T02:26:54;2.10;99.90
66088;DHT22;52872;52.994;6.940;2022-11-20T02:32:04;2.20;99.90
66088;DHT22;52872;52.994;6.940;2022-11-20T02:34:32;2.20;99.90
66088;DHT22;52872;52.994;6.940;2022-11-20T02:36:59;2.20;99.90
66088;DHT22;52872;52.994;6.940;2022-11-20T02:39:27;2.20;99.90
66088;DHT22;52872;52.994;6.940;2022-11-20T02:41:55;2.20;99.90
66088;DHT22;52872;52.994;6.940;2022-11-20T02:44:23;2.20;99.90
66088;DHT22;52872;52.994;6.940;2022-11-20T02:46:49;2.20;99.90
66088;DHT22;52872;52.994;6.940;2022-11-20T02:49:16;2.20;99.90
66088;DHT22;52872;52.994;6.940;2022-11-20T02:51:43;2.20;99.90
66088;DHT22;52872;52.994;6.940;2022-11-20T02:54:10;2.20;99.90
66088;DHT22;52872;52.994;6.940;2022-11-20T02:56:38;2.20;99.90
66088;DHT22;52872;52.994;6.940;2022-11-20T02:59:06;2.20;99.90
66088;DHT22;52872;52.994;6.940;2022-11-20T03:01:33;2.20;99.90
66088;DHT22;52872;52.994;6.940;2022-11-20T03:04:00;2.20;99.90
66088;DHT22;52872;52.994;6.940;2022-11-20T03:06:27;2.20;99.90
66088;DHT22;52872;52.994;6.940;2022-11-20T03:08:54;2.20;99.90
66088;DHT22;52872;52.994;6.940;2022-11-20T03:11:21;2.20;99.90
66088;DHT22;52872;52.994;6.940;2022-11-20T03:13:48;2.20;99.90
66088;DHT22;52872;52.994;6.940;2022-11-20T03:16:20;2.10;99.90
66088;DHT22;52872;52.994;6.940;2022-11-20T03:18:47;2.10;99.90
66088;DHT22;52872;52.994;6.940;2022-11-20T03:21:15;2.10;99.90
66088;DHT22;52872;52.994;6.940;2022-11-20T03:23:43;2.20;99.90
66088;DHT22;52872;52.994;6.940;2022-11-20T03:28:46;2.20;99.90
66088;DHT22;52872;52.994;6.940;2022-11-20T03:31:14;2.30;99.90
66088;DHT22;52872;52.994;6.940;2022-11-20T03:33:42;2.30;99.90
66088;DHT22;52872;52.994;6.940;2022-11-20T03:36:11;2.30;99.90
66088;DHT22;52872;52.994;6.940;2022-11-20T03:38:39;2.30;99.90
66088;DHT22;52872;52.994;6.940;2022-11-20T03:41:12;2.30;99.90
66088;DHT22;52872;52.994;6.940;2022-11-20T03:43:39;2.30;99.90
66088;DHT22;52872;52.994;6.940;2022-11-20T03:46:07;2.40;99.90
66088;DHT22;52872;52.994;6.940;2022-11-20T03:48:34;2.40;99.90
66088;DHT22;52872;52.994;6.940;2022-11-20T03:51:15;2.40;99.90
66088;DHT22;52872;52.994;6.940;2022-11-20T03:53:43;2.40;99.90
66088;DHT22;52872;52.994;6.940;2022-11-20T03:56:13;2.40;99.90
66088;DHT22;52872;52.994;6.940;2022-11-20T03:58:42;2.40;99.90
66088;DHT22;52872;52.994;6.940;2022-11-20T04:01:15;2.40;99.90
66088;DHT22;52872;52.994;6.940;2022-11-20T04:03:43;2.40;99.90
66088;DHT22;52872;52.994;6.940;2022-11-20T04:06:12;2.30;99.90
66088;DHT22;52872;52.994;6.940;2022-11-20T04:08:40;2.30;99.90
66088;DHT22;52872;52.994;6.940;2022-11-20T04:11:19;2.30;99.90
66088;DHT22;52872;52.994;6.940;2022-11-20T04:13:48;2.30;99.90
66088;DHT22;52872;52.994;6.940;2022-11-20T04:16:16;2.30;99.90
66088;DHT22;52872;52.994;6.940;2022-11-20T04:18:44;2.30;99.90
66088;DHT22;52872;52.994;6.940;2022-11-20T04:21:11;2.30;99.90
66088;DHT22;52872;52.994;6.940;2022-11-20T04:23:39;2.30;99.90
66088;DHT22;52872;52.994;6.940;2022-11-20T04:26:07;2.40;99.90
66088;DHT22;52872;52.994;6.940;2022-11-20T04:28:35;2.40;99.90
66088;DHT22;52872;52.994;6.940;2022-11-20T04:31:07;2.40;99.90
66088;DHT22;52872;52.994;6.940;2022-11-20T04:33:35;2.40;99.90
66088;DHT22;52872;52.994;6.940;2022-11-20T04:36:10;2.40;99.90
66088;DHT22;52872;52.994;6.940;2022-11-20T04:38:38;2.40;99.90
66088;DHT22;52872;52.994;6.940;2022-11-20T04:41:13;2.40;99.90
66088;DHT22;52872;52.994;6.940;2022-11-20T04:43:41;2.40;99.90
66088;DHT22;52872;52.994;6.940;2022-11-20T04:46:08;2.50;99.90
66088;DHT22;52872;52.994;6.940;2022-11-20T04:48:35;2.50;99.90
66088;DHT22;52872;52.994;6.940;2022-11-20T04:51:05;2.50;99.90
66088;DHT22;52872;52.994;6.940;2022-11-20T04:53:32;2.50;99.90
66088;DHT22;52872;52.994;6.940;2022-11-20T04:56:07;2.40;99.90
66088;DHT22;52872;52.994;6.940;2022-11-20T04:58:35;2.50;99.90
66088;DHT22;52872;52.994;6.940;2022-11-20T05:01:12;2.50;99.90
66088;DHT22;52872;52.994;6.940;2022-11-20T05:03:43;2.50;99.90
66088;DHT22;52872;52.994;6.940;2022-11-20T05:06:12;2.50;99.90
66088;DHT22;52872;52.994;6.940;2022-11-20T05:08:40;2.50;99.90
66088;DHT22;52872;52.994;6.940;2022-11-20T05:11:09;2.50;99.90
66088;DHT22;52872;52.994;6.940;2022-11-20T05:13:37;2.50;99.90
66088;DHT22;52872;52.994;6.940;2022-11-20T05:16:10;2.50;99.90
66088;DHT22;52872;52.994;6.940;2022-11-20T05:18:37;2.60;99.90
66088;DHT22;52872;52.994;6.940;2022-11-20T05:21:05;2.60;99.90
66088;DHT22;52872;52.994;6.940;2022-11-20T05:23:33;2.60;99.90
66088;DHT22;52872;52.994;6.940;2022-11-20T05:26:01;2.50;99.90
66088;DHT22;52872;52.994;6.940;2022-11-20T05:28:29;2.60;99.90
66088;DHT22;52872;52.994;6.940;2022-11-20T05:31:03;2.60;99.90
66088;DHT22;52872;52.994;6.940;2022-11-20T05:33:30;2.60;99.90
66088;DHT22;52872;52.994;6.940;2022-11-20T05:36:00;2.60;99.90
66088;DHT22;52872;52.994;6.940;2022-11-20T05:38:27;2.60;99.90
66088;DHT22;52872;52.994;6.940;2022-11-20T05:40:54;2.60;99.90
66088;DHT22;52872;52.994;6.940;2022-11-20T05:43:21;2.60;99.90
66088;DHT22;52872;52.994;6.940;2022-11-20T05:45:53;2.60;99.90
66088;DHT22;52872;52.994;6.940;2022-11-20T05:48:20;2.60;99.90
66088;DHT22;52872;52.994;6.940;2022-11-20T05:50:48;2.60;99.90
66088;DHT22;52872;52.994;6.940;2022-11-20T05:53:15;2.60;99.90
66088;DHT22;52872;52.994;6.940;2022-11-20T05:55:42;2.50;99.90
66088;DHT22;52872;52.994;6.940;2022-11-20T05:58:09;2.60;99.90
66088;DHT22;52872;52.994;6.940;2022-11-20T06:00:36;2.50;99.90
66088;DHT22;52872;52.994;6.940;2022-11-20T06:03:02;2.50;99.90
66088;DHT22;52872;52.994;6.940;2022-11-20T06:05:29;2.50;99.90
66088;DHT22;52872;52.994;6.940;2022-11-20T06:07:56;2.50;99.90
66088;DHT22;52872;52.994;6.940;2022-11-20T06:10:23;2.50;99.90
66088;DHT22;52872;52.994;6.940;2022-11-20T06:12:50;2.50;99.90
66088;DHT22;52872;52.994;6.940;2022-11-20T06:15:17;2.50;99.90
66088;DHT22;52872;52.994;6.940;2022-11-20T06:17:44;2.50;99.90
66088;DHT22;52872;52.994;6.940;2022-11-20T06:20:11;2.50;99.90
66088;DHT22;52872;52.994;6.940;2022-11-20T06:22:38;2.50;99.90
66088;DHT22;52872;52.994;6.940;2022-11-20T06:25:05;2.50;99.90
66088;DHT22;52872;52.994;6.940;2022-11-20T06:27:32;2.50;99.90
66088;DHT22;52872;52.994;6.940;2022-11-20T06:29:58;2.50;99.90
66088;DHT22;52872;52.994;6.940;2022-11-20T06:32:25;2.50;99.90
66088;DHT22;52872;52.994;6.940;2022-11-20T06:34:52;2.50;99.90
66088;DHT22;52872;52.994;6.940;2022-11-20T06:37:19;2.50;99.90
66088;DHT22;52872;52.994;6.940;2022-11-20T06:39:46;2.50;99.90
66088;DHT22;52872;52.994;6.940;2022-11-20T06:42:13;2.50;99.90
66088;DHT22;52872;52.994;6.940;2022-11-20T06:44:40;2.50;99.90
66088;DHT22;52872;52.994;6.940;2022-11-20T06:47:07;2.50;99.90
66088;DHT22;52872;52.994;6.940;2022-11-20T06:49:34;2.50;99.90
66088;DHT22;52872;52.994;6.940;2022-11-20T06:52:00;2.50;99.90
66088;DHT22;52872;52.994;6.940;2022-11-20T06:54:27;2.50;99.90
66088;DHT22;52872;52.994;6.940;2022-11-20T06:56:54;2.60;99.90
66088;DHT22;52872;52.994;6.940;2022-11-20T06:59:21;2.60;99.90
66088;DHT22;52872;52.994;6.940;2022-11-20T07:01:48;2.50;99.90
66088;DHT22;52872;52.994;6.940;2022-11-20T07:04:15;2.60;99.90
66088;DHT22;52872;52.994;6.940;2022-11-20T07:06:42;2.60;99.90
66088;DHT22;52872;52.994;6.940;2022-11-20T07:09:09;2.60;99.90
66088;DHT22;52872;52.994;6.940;2022-11-20T07:11:38;2.60;99.90
66088;DHT22;52872;52.994;6.940;2022-11-20T07:14:05;2.60;99.90
66088;DHT22;52872;52.994;6.940;2022-11-20T07:16:32;2.60;99.90
66088;DHT22;52872;52.994;6.940;2022-11-20T07:18:59;2.60;99.90
66088;DHT22;52872;52.994;6.940;2022-11-20T07:21:26;2.60;99.90
66088;DHT22;52872;52.994;6.940;2022-11-20T07:23:52;2.60;99.90
66088;DHT22;52872;52.994;6.940;2022-11-20T07:26:19;2.60;99.90
66088;DHT22;52872;52.994;6.940;2022-11-20T07:28:46;2.60;99.90
66088;DHT22;52872;52.994;6.940;2022-11-20T07:31:13;2.60;99.90
66088;DHT22;52872;52.994;6.940;2022-11-20T07:33:44;2.60;99.90
66088;DHT22;52872;52.994;6.940;2022-11-20T07:36:11;2.70;99.90
66088;DHT22;52872;52.994;6.940;2022-11-20T07:38:38;2.70;99.90
66088;DHT22;52872;52.994;6.940;2022-11-20T07:41:05;2.70;99.90
66088;DHT22;52872;52.994;6.940;2022-11-20T07:43:32;2.70;99.90
66088;DHT22;52872;52.994;6.940;2022-11-20T07:46:04;2.80;99.90
66088;DHT22;52872;52.994;6.940;2022-11-20T07:48:31;2.80;99.90
66088;DHT22;52872;52.994;6.940;2022-11-20T07:50:58;2.90;99.90
66088;DHT22;52872;52.994;6.940;2022-11-20T07:53:25;2.90;99.90
66088;DHT22;52872;52.994;6.940;2022-11-20T07:55:52;2.90;99.90
66088;DHT22;52872;52.994;6.940;2022-11-20T07:58:21;3.00;99.90
66088;DHT22;52872;52.994;6.940;2022-11-20T08:00:48;3.10;99.90
66088;DHT22;52872;52.994;6.940;2022-11-20T08:03:16;3.10;99.90
66088;DHT22;52872;52.994;6.940;2022-11-20T08:05:49;3.10;99.90
66088;DHT22;52872;52.994;6.940;2022-11-20T08:08:16;3.20;99.90
66088;DHT22;52872;52.994;6.940;2022-11-20T08:10:43;3.20;99.90
66088;DHT22;52872;52.994;6.940;2022-11-20T08:13:10;3.30;99.90
66088;DHT22;52872;52.994;6.940;2022-11-20T08:15:55;3.30;99.90
66088;DHT22;52872;52.994;6.940;2022-11-20T08:18:22;3.30;99.90
66088;DHT22;52872;52.994;6.940;2022-11-20T08:20:57;3.30;99.90
66088;DHT22;52872;52.994;6.940;2022-11-20T08:23:24;3.30;99.90
66088;DHT22;52872;52.994;6.940;2022-11-20T08:25:50;3.30;99.90
66088;DHT22;52872;52.994;6.940;2022-11-20T08:28:18;3.40;99.90
66088;DHT22;52872;52.994;6.940;2022-11-20T08:30:48;3.40;99.90
66088;DHT22;52872;52.994;6.940;2022-11-20T08:33:15;3.50;99.90
66088;DHT22;52872;52.994;6.940;2022-11-20T08:35:41;3.50;99.90
66088;DHT22;52872;52.994;6.940;2022-11-20T08:38:09;3.50;99.90
66088;DHT22;52872;52.994;6.940;2022-11-20T08:40:36;3.60;99.90
66088;DHT22;52872;52.994;6.940;2022-11-20T08:43:03;3.60;99.90
66088;DHT22;52872;52.994;6.940;2022-11-20T08:45:31;3.60;99.90
66088;DHT22;52872;52.994;6.940;2022-11-20T08:48:01;3.70;99.90
66088;DHT22;52872;52.994;6.940;2022-11-20T08:50:28;3.60;99.90
66088;DHT22;52872;52.994;6.940;2022-11-20T08:53:05;3.70;99.90
66088;DHT22;52872;52.994;6.940;2022-11-20T08:55:32;3.70;99.90
66088;DHT22;52872;52.994;6.940;2022-11-20T08:58:08;3.70;99.90
66088;DHT22;52872;52.994;6.940;2022-11-20T09:00:35;3.70;99.90
66088;DHT22;52872;52.994;6.940;2022-11-20T09:03:02;3.70;99.90
66088;DHT22;52872;52.994;6.940;2022-11-20T09:05:29;3.70;99.90
66088;DHT22;52872;52.994;6.940;2022-11-20T09:07:59;3.80;99.90
66088;DHT22;52872;52.994;6.940;2022-11-20T09:10:26;3.90;99.90
66088;DHT22;52872;52.994;6.940;2022-11-20T09:12:53;3.90;99.90
66088;DHT22;52872;52.994;6.940;2022-11-20T09:15:22;3.90;99.90
66088;DHT22;52872;52.994;6.940;2022-11-20T09:17:55;4.00;99.90
66088;DHT22;52872;52.994;6.940;2022-11-20T09:20:22;4.00;99.90
66088;DHT22;52872;52.994;6.940;2022-11-20T09:22:50;4.10;99.90
66088;DHT22;52872;52.994;6.940;2022-11-20T09:25:17;4.10;99.90
66088;DHT22;52872;52.994;6.940;2022-11-20T09:27:44;4.20;99.90
66088;DHT22;52872;52.994;6.940;2022-11-20T09:30:15;4.20;99.90
66088;DHT22;52872;52.994;6.940;2022-11-20T09:32:43;4.30;99.90
66088;DHT22;52872;52.994;6.940;2022-11-20T09:35:10;4.30;99.90
66088;DHT22;52872;52.994;6.940;2022-11-20T09:37:37;4.40;99.90
66088;DHT22;52872;52.994;6.940;2022-11-20T09:40:04;4.40;99.90
66088;DHT22;52872;52.994;6.940;2022-11-20T09:50:37;4.60;99.90
66088;DHT22;52872;52.994;6.940;2022-11-20T09:55:36;4.70;99.90
66088;DHT22;52872;52.994;6.940;2022-11-20T09:58:07;4.80;99.90
66088;DHT22;52872;52.994;6.940;2022-11-20T10:00:35;4.90;99.90
66088;DHT22;52872;52.994;6.940;2022-11-20T10:03:35;4.90;99.90
66088;DHT22;52872;52.994;6.940;2022-11-20T10:06:05;5.00;99.90
66088;DHT22;52872;52.994;6.940;2022-11-20T10:11:51;5.20;99.90
66088;DHT22;52872;52.994;6.940;2022-11-20T10:30:19;5.40;99.90
66088;DHT22;52872;52.994;6.940;2022-11-20T10:33:03;5.40;99.90
66088;DHT22;52872;52.994;6.940;2022-11-20T10:35:44;5.50;99.90
66088;DHT22;52872;52.994;6.940;2022-11-20T10:38:39;5.60;99.90
66088;DHT22;52872;52.994;6.940;2022-11-20T10:41:14;5.70;99.90
66088;DHT22;52872;52.994;6.940;2022-11-20T10:44:00;5.70;99.90
66088;DHT22;52872;52.994;6.940;2022-11-20T10:46:35;5.80;99.90
66088;DHT22;52872;52.994;6.940;2022-11-20T10:49:11;5.90;99.90
66088;DHT22;52872;52.994;6.940;2022-11-20T10:51:58;5.90;99.90
66088;DHT22;52872;52.994;6.940;2022-11-20T10:54:49;6.00;99.90
66088;DHT22;52872;52.994;6.940;2022-11-20T10:57:52;6.10;99.90
66088;DHT22;52872;52.994;6.940;2022-11-20T11:00:21;6.20;99.90
66088;DHT22;52872;52.994;6.940;2022-11-20T11:02:50;6.20;99.90
66088;DHT22;52872;52.994;6.940;2022-11-20T11:07:57;6.30;99.90
66088;DHT22;52872;52.994;6.940;2022-11-20T11:10:43;6.30;99.90
66088;DHT22;52872;52.994;6.940;2022-11-20T11:13:30;6.30;99.90
66088;DHT22;52872;52.994;6.940;2022-11-20T11:15:57;6.30;99.90
66088;DHT22;52872;52.994;6.940;2022-11-20T11:18:31;6.30;99.90
66088;DHT22;52872;52.994;6.940;2022-11-20T11:21:08;6.20;99.90
66088;DHT22;52872;52.994;6.940;2022-11-20T11:23:38;6.20;99.90
66088;DHT22;52872;52.994;6.940;2022-11-20T11:26:18;6.10;99.90
66088;DHT22;52872;52.994;6.940;2022-11-20T11:29:03;6.20;99.90
66088;DHT22;52872;52.994;6.940;2022-11-20T11:31:32;6.30;99.90
66088;DHT22;52872;52.994;6.940;2022-11-20T11:34:17;6.30;99.90
66088;DHT22;52872;52.994;6.940;2022-11-20T11:36:56;6.30;99.90
66088;DHT22;52872;52.994;6.940;2022-11-20T11:39:26;6.30;99.90
66088;DHT22;52872;52.994;6.940;2022-11-20T11:41:53;6.20;99.90
66088;DHT22;52872;52.994;6.940;2022-11-20T11:44:23;6.30;99.90
66088;DHT22;52872;52.994;6.940;2022-11-20T11:47:32;6.30;99.90
66088;DHT22;52872;52.994;6.940;2022-11-20T11:53:17;6.30;99.90
66088;DHT22;52872;52.994;6.940;2022-11-20T11:56:09;6.40;99.90
66088;DHT22;52872;52.994;6.940;2022-11-20T11:58:44;6.30;99.90
66088;DHT22;52872;52.994;6.940;2022-11-20T12:06:43;6.20;99.80
66088;DHT22;52872;52.994;6.940;2022-11-20T12:09:11;6.20;99.90
66088;DHT22;52872;52.994;6.940;2022-11-20T12:11:54;6.20;99.60
66088;DHT22;52872;52.994;6.940;2022-11-20T12:14:39;6.30;99.70
66088;DHT22;52872;52.994;6.940;2022-11-20T12:17:11;6.20;99.30
66088;DHT22;52872;52.994;6.940;2022-11-20T12:19:38;6.20;99.10
66088;DHT22;52872;52.994;6.940;2022-11-20T12:30:22;5.90;98.90
66088;DHT22;52872;52.994;6.940;2022-11-20T12:33:11;5.80;98.70
66088;DHT22;52872;52.994;6.940;2022-11-20T12:59:39;6.50;96.90
66088;DHT22;52872;52.994;6.940;2022-11-20T13:07:24;6.50;97.00
66088;DHT22;52872;52.994;6.940;2022-11-20T13:09:53;6.40;97.30
66088;DHT22;52872;52.994;6.940;2022-11-20T13:12:45;6.40;97.70
66088;DHT22;52872;52.994;6.940;2022-11-20T13:15:36;6.40;97.60
66088;DHT22;52872;52.994;6.940;2022-11-20T13:18:09;6.30;97.80
66088;DHT22;52872;52.994;6.940;2022-11-20T13:20:44;6.30;97.70
66088;DHT22;52872;52.994;6.940;2022-11-20T13:23:23;6.20;97.90
66088;DHT22;52872;52.994;6.940;2022-11-20T13:28:30;6.20;98.30
66088;DHT22;52872;52.994;6.940;2022-11-20T13:30:58;6.20;98.70
66088;DHT22;52872;52.994;6.940;2022-11-20T13:33:38;6.10;98.60
66088;DHT22;52872;52.994;6.940;2022-11-20T13:36:19;6.10;98.10
66088;DHT22;52872;52.994;6.940;2022-11-20T13:38:51;6.00;98.30
66088;DHT22;52872;52.994;6.940;2022-11-20T13:41:35;6.00;98.70
66088;DHT22;52872;52.994;6.940;2022-11-20T13:44:38;6.00;98.50
66088;DHT22;52872;52.994;6.940;2022-11-20T13:47:24;5.90;98.40
66088;DHT22;52872;52.994;6.940;2022-11-20T13:49:52;5.80;98.30
66088;DHT22;52872;52.994;6.940;2022-11-20T13:58:21;5.70;99.00
66088;DHT22;52872;52.994;6.940;2022-11-20T14:01:10;5.70;98.80
66088;DHT22;52872;52.994;6.940;2022-11-20T14:03:41;5.60;99.10
66088;DHT22;52872;52.994;6.940;2022-11-20T14:06:30;5.50;99.00
66088;DHT22;52872;52.994;6.940;2022-11-20T14:08:59;5.50;98.90
66088;DHT22;52872;52.994;6.940;2022-11-20T14:11:30;5.60;99.10
66088;DHT22;52872;52.994;6.940;2022-11-20T14:14:03;5.60;99.30
66088;DHT22;52872;52.994;6.940;2022-11-20T14:16:35;5.50;99.30
66088;DHT22;52872;52.994;6.940;2022-11-20T14:19:26;5.50;99.50
66088;DHT22;52872;52.994;6.940;2022-11-20T14:22:10;5.50;99.50
66088;DHT22;52872;52.994;6.940;2022-11-20T14:24:41;5.40;99.70
66088;DHT22;52872;52.994;6.940;2022-11-20T14:27:19;5.30;99.70
66088;DHT22;52872;52.994;6.940;2022-11-20T14:29:49;5.40;99.70
66088;DHT22;52872;52.994;6.940;2022-11-20T14:32:22;5.30;99.90
66088;DHT22;52872;52.994;6.940;2022-11-20T14:34:52;5.20;99.90
66088;DHT22;52872;52.994;6.940;2022-11-20T14:37:23;5.10;99.80
66088;DHT22;52872;52.994;6.940;2022-11-20T14:39:55;5.10;99.90
66088;DHT22;52872;52.994;6.940;2022-11-20T14:42:25;5.00;99.90
66088;DHT22;52872;52.994;6.940;2022-11-20T14:44:56;5.00;99.90
66088;DHT22;52872;52.994;6.940;2022-11-20T14:47:26;4.80;99.90
66088;DHT22;52872;52.994;6.940;2022-11-20T14:49:55;4.80;99.90
66088;DHT22;52872;52.994;6.940;2022-11-20T14:52:24;4.80;99.90
66088;DHT22;52872;52.994;6.940;2022-11-20T14:54:57;4.70;99.90
66088;DHT22;52872;52.994;6.940;2022-11-20T15:02:44;4.60;99.90
66088;DHT22;52872;52.994;6.940;2022-11-20T15:05:11;4.50;99.90
66088;DHT22;52872;52.994;6.940;2022-11-20T15:07:41;4.50;99.90
66088;DHT22;52872;52.994;6.940;2022-11-20T15:10:26;4.50;99.90
66088;DHT22;52872;52.994;6.940;2022-11-20T15:12:55;4.40;99.90
66088;DHT22;52872;52.994;6.940;2022-11-20T15:18:13;4.30;99.90
66088;DHT22;52872;52.994;6.940;2022-11-20T15:20:42;4.20;99.90
66088;DHT22;52872;52.994;6.940;2022-11-20T15:23:15;4.10;99.90
66088;DHT22;52872;52.994;6.940;2022-11-20T15:25:42;4.10;99.90
66088;DHT22;52872;52.994;6.940;2022-11-20T15:28:35;4.10;99.90
66088;DHT22;52872;52.994;6.940;2022-11-20T15:31:03;4.10;99.90
66088;DHT22;52872;52.994;6.940;2022-11-20T15:33:32;4.00;99.90
66088;DHT22;52872;52.994;6.940;2022-11-20T15:35:59;3.90;99.90
66088;DHT22;52872;52.994;6.940;2022-11-20T15:38:26;3.90;99.90
66088;DHT22;52872;52.994;6.940;2022-11-20T15:40:53;3.90;99.90
66088;DHT22;52872;52.994;6.940;2022-11-20T15:43:20;3.90;99.90
66088;DHT22;52872;52.994;6.940;2022-11-20T15:45:52;3.90;99.90
66088;DHT22;52872;52.994;6.940;2022-11-20T15:48:41;3.90;99.90
66088;DHT22;52872;52.994;6.940;2022-11-20T15:53:59;3.90;99.90
66088;DHT22;52872;52.994;6.940;2022-11-20T15:56:26;3.90;99.90
66088;DHT22;52872;52.994;6.940;2022-11-20T15:58:53;3.90;99.90
66088;DHT22;52872;52.994;6.940;2022-11-20T16:01:23;3.90;99.90
66088;DHT22;52872;52.994;6.940;2022-11-20T16:03:50;3.90;99.90
66088;DHT22;52872;52.994;6.940;2022-11-20T16:06:17;3.90;99.90
66088;DHT22;52872;52.994;6.940;2022-11-20T16:08:44;3.80;99.90
66088;DHT22;52872;52.994;6.940;2022-11-20T16:11:15;3.80;99.90
66088;DHT22;52872;52.994;6.940;2022-11-20T16:13:43;3.80;99.90
66088;DHT22;52872;52.994;6.940;2022-11-20T16:16:30;3.80;99.90
66088;DHT22;52872;52.994;6.940;2022-11-20T16:18:58;3.80;99.90
66088;DHT22;52872;52.994;6.940;2022-11-20T16:21:27;3.80;99.90
66088;DHT22;52872;52.994;6.940;2022-11-20T16:23:58;3.70;99.90
66088;DHT22;52872;52.994;6.940;2022-11-20T16:26:25;3.70;99.90
66088;DHT22;52872;52.994;6.940;2022-11-20T16:28:53;3.70;99.90
66088;DHT22;52872;52.994;6.940;2022-11-20T16:31:20;3.70;99.90
66088;DHT22;52872;52.994;6.940;2022-11-20T16:33:52;3.70;99.90
66088;DHT22;52872;52.994;6.940;2022-11-20T16:36:21;3.60;99.90
66088;DHT22;52872;52.994;6.940;2022-11-20T16:38:56;3.60;99.90
66088;DHT22;52872;52.994;6.940;2022-11-20T16:41:24;3.70;99.90
66088;DHT22;52872;52.994;6.940;2022-11-20T16:43:56;3.60;99.90
66088;DHT22;52872;52.994;6.940;2022-11-20T16:46:28;3.60;99.90
66088;DHT22;52872;52.994;6.940;2022-11-20T16:49:04;3.60;99.90
66088;DHT22;52872;52.994;6.940;2022-11-20T16:51:34;3.60;99.90
66088;DHT22;52872;52.994;6.940;2022-11-20T16:54:03;3.60;99.90
66088;DHT22;52872;52.994;6.940;2022-11-20T16:56:31;3.60;99.90
66088;DHT22;52872;52.994;6.940;2022-11-20T16:58:59;3.60;99.90
66088;DHT22;52872;52.994;6.940;2022-11-20T17:01:27;3.60;99.90
66088;DHT22;52872;52.994;6.940;2022-11-20T17:03:58;3.60;99.90
66088;DHT22;52872;52.994;6.940;2022-11-20T17:06:28;3.60;99.90
66088;DHT22;52872;52.994;6.940;2022-11-20T17:08:56;3.60;99.90
66088;DHT22;52872;52.994;6.940;2022-11-20T17:11:23;3.60;99.90
66088;DHT22;52872;52.994;6.940;2022-11-20T17:13:51;3.60;99.90
66088;DHT22;52872;52.994;6.940;2022-11-20T17:16:20;3.60;99.90
66088;DHT22;52872;52.994;6.940;2022-11-20T17:18:47;3.60;99.90
66088;DHT22;52872;52.994;6.940;2022-11-20T17:21:18;3.60;99.90
66088;DHT22;52872;52.994;6.940;2022-11-20T17:23:45;3.60;99.90
66088;DHT22;52872;52.994;6.940;2022-11-20T17:26:15;3.60;99.90
66088;DHT22;52872;52.994;6.940;2022-11-20T17:28:44;3.50;99.90
66088;DHT22;52872;52.994;6.940;2022-11-20T17:31:14;3.60;99.90
66088;DHT22;52872;52.994;6.940;2022-11-20T17:33:43;3.50;99.90
66088;DHT22;52872;52.994;6.940;2022-11-20T17:36:13;3.60;99.90
66088;DHT22;52872;52.994;6.940;2022-11-20T17:38:40;3.60;99.90
66088;DHT22;52872;52.994;6.940;2022-11-20T17:41:18;3.60;99.90
66088;DHT22;52872;52.994;6.940;2022-11-20T17:43:45;3.60;99.90
66088;DHT22;52872;52.994;6.940;2022-11-20T17:46:14;3.60;99.90
66088;DHT22;52872;52.994;6.940;2022-11-20T17:48:42;3.60;99.90
66088;DHT22;52872;52.994;6.940;2022-11-20T17:51:12;3.60;99.90
66088;DHT22;52872;52.994;6.940;2022-11-20T17:53:40;3.60;99.90
66088;DHT22;52872;52.994;6.940;2022-11-20T17:56:08;3.60;99.90